Folie A Deux — WDD2259 — position and weather

sailwx.info

Track history (hours):
 
Tides and Currents Weather Stations Pressure Air Temp Water Temp Dewpoint Dewpoint Depression Visibility Wind Speed Wind Dir Waves Ship Positions

Folie A Deux

Owner: Burnett, John L, San Francisco, CA. More information available from US FCC via Universal Licensing System and Coast Guard Vessel Documentation Center.

Last reported at 2017-Oct-10 11:34 UTC. Time now 2017-Dec-14 02:32 UTC.
Position N 38°52' W 076°26'.
Warning: this ship's position is months out of date.

Length 14 m.

Type: Sailing vessel. MMSI: 367113020.

Date/timePositionNaut miles runAvg speedWind from/ knotsBaromVisibWave heightAir tempDewpointWater temp
2017-Oct-10 11:34N 38°52' W 076°26'0 6.1
2017-Oct-10 11:30N 38°53' W 076°26'3 5.8
2017-Oct-10 11:00N 38°56' W 076°26'3 5.6
2017-Oct-10 10:30N 38°58' W 076°27'1 0.0
2017-Oct-08 15:31N 38°59' W 076°29'0 0.1
2017-Oct-08 15:28N 38°59' W 076°29'  
2017-Oct-02 16:47N 39°17' W 076°36'1 4.6
2017-Oct-02 16:30N 39°16' W 076°35'16 5.2
2017-Oct-02 13:32N 39°17' W 076°15'0 7.1
2017-Oct-02 13:30N 39°17' W 076°14'3 5.4
2017-Oct-02 12:55N 39°20' W 076°12'3 6.7
2017-Oct-02 12:27N 39°22' W 076°09'4 6.9
2017-Oct-02 11:57N 39°23' W 076°05'2 5.3
2017-Oct-02 11:30N 39°22' W 076°02'6 0.3
2017-Oct-01 17:12N 39°27' W 075°59'2 7.9
2017-Oct-01 17:00N 39°29' W 075°58'4 8.2
2017-Oct-01 16:30N 39°31' W 075°53'4 7.1
2017-Oct-01 16:00N 39°32' W 075°49'2 4.1
2017-Oct-01 15:30N 39°32' W 075°46'4 8.0
2017-Oct-01 15:00N 39°33' W 075°41'4 7.6
2017-Oct-01 14:30N 39°33' W 075°36'3 5.3
2017-Oct-01 14:00N 39°34' W 075°33'3 5.5
2017-Oct-01 13:30N 39°31' W 075°33'3 6.0
2017-Oct-01 13:00N 39°28' W 075°34'3 6.5
2017-Oct-01 12:30N 39°26' W 075°31'3 6.4
2017-Oct-01 12:00N 39°23' W 075°29'3 6.1
2017-Oct-01 11:30N 39°21' W 075°26'4 7.7
2017-Oct-01 11:00N 39°18' W 075°23'4 7.1
2017-Oct-01 10:30N 39°15' W 075°20'  
Track history (hours):
 
Tides and Currents Weather Stations Pressure Air Temp Water Temp Dewpoint Dewpoint Depression Visibility Wind Speed Wind Dir Waves Ship Positions

Folie A Deux

Owner: Burnett, John L, San Francisco, CA. More information available from US FCC via Universal Licensing System and Coast Guard Vessel Documentation Center.

Last reported at 2017-Oct-10 11:34 UTC. Time now 2017-Dec-14 02:32 UTC.
Position N 38°52' W 076°26'.
Warning: this ship's position is months out of date.

Length 14 m.

Type: Sailing vessel. MMSI: 367113020.

Date/timePositionNaut miles runAvg speedWind from/ knotsBaromVisibWave heightAir tempDewpointWater temp
2017-Oct-10 11:34N 38°52' W 076°26'0 6.1
2017-Oct-10 11:30N 38°53' W 076°26'3 5.8
2017-Oct-10 11:00N 38°56' W 076°26'3 5.6
2017-Oct-10 10:30N 38°58' W 076°27'1 0.0
2017-Oct-08 15:31N 38°59' W 076°29'0 0.1
2017-Oct-08 15:28N 38°59' W 076°29'  
2017-Oct-02 16:47N 39°17' W 076°36'1 4.6
2017-Oct-02 16:30N 39°16' W 076°35'16 5.2
2017-Oct-02 13:32N 39°17' W 076°15'0 7.1
2017-Oct-02 13:30N 39°17' W 076°14'3 5.4
2017-Oct-02 12:55N 39°20' W 076°12'3 6.7
2017-Oct-02 12:27N 39°22' W 076°09'4 6.9
2017-Oct-02 11:57N 39°23' W 076°05'2 5.3
2017-Oct-02 11:30N 39°22' W 076°02'6 0.3
2017-Oct-01 17:12N 39°27' W 075°59'2 7.9
2017-Oct-01 17:00N 39°29' W 075°58'4 8.2
2017-Oct-01 16:30N 39°31' W 075°53'4 7.1
2017-Oct-01 16:00N 39°32' W 075°49'2 4.1
2017-Oct-01 15:30N 39°32' W 075°46'4 8.0
2017-Oct-01 15:00N 39°33' W 075°41'4 7.6
2017-Oct-01 14:30N 39°33' W 075°36'3 5.3
2017-Oct-01 14:00N 39°34' W 075°33'3 5.5
2017-Oct-01 13:30N 39°31' W 075°33'3 6.0
2017-Oct-01 13:00N 39°28' W 075°34'3 6.5
2017-Oct-01 12:30N 39°26' W 075°31'3 6.4
2017-Oct-01 12:00N 39°23' W 075°29'3 6.1
2017-Oct-01 11:30N 39°21' W 075°26'4 7.7
2017-Oct-01 11:00N 39°18' W 075°23'4 7.1
2017-Oct-01 10:30N 39°15' W 075°20'  

Dump ship's entire track history